sensor_id;sensor_type;location;lat;lon;timestamp;temperature;humidity
13794;DHT22;31160;49.500;7.772;2023-06-26T00:01:57;18.30;96.10
13794;DHT22;31160;49.500;7.772;2023-06-26T00:04:24;18.20;96.40
13794;DHT22;31160;49.500;7.772;2023-06-26T00:06:51;18.20;96.60
13794;DHT22;31160;49.500;7.772;2023-06-26T00:09:17;18.20;96.70
13794;DHT22;31160;49.500;7.772;2023-06-26T00:11:44;18.20;96.70
13794;DHT22;31160;49.500;7.772;2023-06-26T00:14:11;18.20;96.80
13794;DHT22;31160;49.500;7.772;2023-06-26T00:16:38;18.10;96.90
13794;DHT22;31160;49.500;7.772;2023-06-26T00:19:04;18.10;97.30
13794;DHT22;31160;49.500;7.772;2023-06-26T00:21:31;18.00;97.30
13794;DHT22;31160;49.500;7.772;2023-06-26T00:23:58;18.00;97.40
13794;DHT22;31160;49.500;7.772;2023-06-26T00:26:25;18.00;97.50
13794;DHT22;31160;49.500;7.772;2023-06-26T00:28:51;18.00;97.70
13794;DHT22;31160;49.500;7.772;2023-06-26T00:31:19;17.90;97.90
13794;DHT22;31160;49.500;7.772;2023-06-26T00:33:47;17.90;98.10
13794;DHT22;31160;49.500;7.772;2023-06-26T00:36:14;17.80;98.20
13794;DHT22;31160;49.500;7.772;2023-06-26T00:38:41;17.80;98.40
13794;DHT22;31160;49.500;7.772;2023-06-26T00:41:07;17.70;98.50
13794;DHT22;31160;49.500;7.772;2023-06-26T00:43:39;17.70;98.60
13794;DHT22;31160;49.500;7.772;2023-06-26T00:46:10;17.70;98.70
13794;DHT22;31160;49.500;7.772;2023-06-26T00:48:39;17.70;98.90
13794;DHT22;31160;49.500;7.772;2023-06-26T00:51:11;17.60;99.00
13794;DHT22;31160;49.500;7.772;2023-06-26T00:53:38;17.60;99.10
13794;DHT22;31160;49.500;7.772;2023-06-26T00:56:06;17.60;99.30
13794;DHT22;31160;49.500;7.772;2023-06-26T00:58:35;17.60;99.40
13794;DHT22;31160;49.500;7.772;2023-06-26T01:01:02;17.50;99.70
13794;DHT22;31160;49.500;7.772;2023-06-26T01:03:29;17.40;99.80
13794;DHT22;31160;49.500;7.772;2023-06-26T01:05:58;17.50;99.80
13794;DHT22;31160;49.500;7.772;2023-06-26T01:08:27;17.50;99.90
13794;DHT22;31160;49.500;7.772;2023-06-26T01:10:54;17.40;99.90
13794;DHT22;31160;49.500;7.772;2023-06-26T01:13:21;17.30;99.90
13794;DHT22;31160;49.500;7.772;2023-06-26T01:15:51;17.30;99.90
13794;DHT22;31160;49.500;7.772;2023-06-26T01:18:19;17.30;99.90
13794;DHT22;31160;49.500;7.772;2023-06-26T01:20:46;17.30;99.90
13794;DHT22;31160;49.500;7.772;2023-06-26T01:23:37;17.30;99.90
13794;DHT22;31160;49.500;7.772;2023-06-26T01:26:20;17.30;99.90
13794;DHT22;31160;49.500;7.772;2023-06-26T01:28:48;17.30;99.90
13794;DHT22;31160;49.500;7.772;2023-06-26T01:31:17;17.20;99.90
13794;DHT22;31160;49.500;7.772;2023-06-26T01:33:44;17.10;99.90
13794;DHT22;31160;49.500;7.772;2023-06-26T01:36:12;17.10;99.90
13794;DHT22;31160;49.500;7.772;2023-06-26T01:38:39;17.00;99.90
13794;DHT22;31160;49.500;7.772;2023-06-26T01:41:06;17.00;99.90
13794;DHT22;31160;49.500;7.772;2023-06-26T01:46:39;16.90;99.90
13794;DHT22;31160;49.500;7.772;2023-06-26T01:52:18;16.90;99.90
13794;DHT22;31160;49.500;7.772;2023-06-26T01:54:56;16.80;99.90
13794;DHT22;31160;49.500;7.772;2023-06-26T01:57:26;16.80;99.90
13794;DHT22;31160;49.500;7.772;2023-06-26T01:59:55;16.70;99.90
13794;DHT22;31160;49.500;7.772;2023-06-26T02:02:25;16.80;99.90
13794;DHT22;31160;49.500;7.772;2023-06-26T02:04:52;16.80;99.90
13794;DHT22;31160;49.500;7.772;2023-06-26T02:07:19;16.80;99.90
13794;DHT22;31160;49.500;7.772;2023-06-26T02:09:46;16.80;99.90
13794;DHT22;31160;49.500;7.772;2023-06-26T02:12:13;16.80;99.90
13794;DHT22;31160;49.500;7.772;2023-06-26T02:14:40;16.80;99.90
13794;DHT22;31160;49.500;7.772;2023-06-26T02:17:06;16.80;99.90
13794;DHT22;31160;49.500;7.772;2023-06-26T02:19:35;16.80;99.90
13794;DHT22;31160;49.500;7.772;2023-06-26T02:22:02;16.80;99.90
13794;DHT22;31160;49.500;7.772;2023-06-26T02:24:28;16.80;99.90
13794;DHT22;31160;49.500;7.772;2023-06-26T02:26:57;16.70;99.90
13794;DHT22;31160;49.500;7.772;2023-06-26T02:29:24;16.70;99.90
13794;DHT22;31160;49.500;7.772;2023-06-26T02:31:51;16.70;99.90
13794;DHT22;31160;49.500;7.772;2023-06-26T02:34:17;16.60;99.90
13794;DHT22;31160;49.500;7.772;2023-06-26T02:36:44;16.60;99.90
13794;DHT22;31160;49.500;7.772;2023-06-26T02:39:12;16.60;99.90
13794;DHT22;31160;49.500;7.772;2023-06-26T02:41:40;16.50;99.90
13794;DHT22;31160;49.500;7.772;2023-06-26T02:44:07;16.40;99.90
13794;DHT22;31160;49.500;7.772;2023-06-26T02:46:34;16.40;99.90
13794;DHT22;31160;49.500;7.772;2023-06-26T02:49:01;16.40;99.90
13794;DHT22;31160;49.500;7.772;2023-06-26T02:51:28;16.30;99.90
13794;DHT22;31160;49.500;7.772;2023-06-26T02:53:56;16.30;99.90
13794;DHT22;31160;49.500;7.772;2023-06-26T02:56:23;16.30;99.90
13794;DHT22;31160;49.500;7.772;2023-06-26T02:58:49;16.20;99.90
13794;DHT22;31160;49.500;7.772;2023-06-26T03:01:16;16.20;99.90
13794;DHT22;31160;49.500;7.772;2023-06-26T03:03:44;16.20;99.90
13794;DHT22;31160;49.500;7.772;2023-06-26T03:06:16;16.20;99.90
13794;DHT22;31160;49.500;7.772;2023-06-26T03:08:43;16.20;99.90
13794;DHT22;31160;49.500;7.772;2023-06-26T03:11:13;16.10;99.90
13794;DHT22;31160;49.500;7.772;2023-06-26T03:13:39;16.00;99.90
13794;DHT22;31160;49.500;7.772;2023-06-26T03:16:06;16.00;99.90
13794;DHT22;31160;49.500;7.772;2023-06-26T03:18:33;15.90;99.90
13794;DHT22;31160;49.500;7.772;2023-06-26T03:21:00;15.90;99.90
13794;DHT22;31160;49.500;7.772;2023-06-26T03:23:27;16.00;99.90
13794;DHT22;31160;49.500;7.772;2023-06-26T03:25:54;15.90;99.90
13794;DHT22;31160;49.500;7.772;2023-06-26T03:28:26;15.90;99.90
13794;DHT22;31160;49.500;7.772;2023-06-26T03:30:53;15.90;99.90
13794;DHT22;31160;49.500;7.772;2023-06-26T03:33:20;15.90;99.90
13794;DHT22;31160;49.500;7.772;2023-06-26T03:35:47;15.80;99.90
13794;DHT22;31160;49.500;7.772;2023-06-26T03:38:14;15.90;99.90
13794;DHT22;31160;49.500;7.772;2023-06-26T03:40:43;15.90;99.90
13794;DHT22;31160;49.500;7.772;2023-06-26T03:43:10;15.80;99.90
13794;DHT22;31160;49.500;7.772;2023-06-26T03:45:57;15.80;99.90
13794;DHT22;31160;49.500;7.772;2023-06-26T03:48:25;15.90;99.90
13794;DHT22;31160;49.500;7.772;2023-06-26T03:50:52;16.00;99.90
13794;DHT22;31160;49.500;7.772;2023-06-26T03:53:19;16.10;99.90
13794;DHT22;31160;49.500;7.772;2023-06-26T03:55:45;16.00;99.90
13794;DHT22;31160;49.500;7.772;2023-06-26T03:58:12;15.90;99.90
13794;DHT22;31160;49.500;7.772;2023-06-26T04:00:39;15.80;99.90
13794;DHT22;31160;49.500;7.772;2023-06-26T04:03:07;15.70;99.90
13794;DHT22;31160;49.500;7.772;2023-06-26T04:05:35;15.70;99.90
13794;DHT22;31160;49.500;7.772;2023-06-26T04:08:03;15.80;99.90
13794;DHT22;31160;49.500;7.772;2023-06-26T04:10:29;15.90;99.90
13794;DHT22;31160;49.500;7.772;2023-06-26T04:12:56;16.00;99.90
13794;DHT22;31160;49.500;7.772;2023-06-26T04:15:23;16.00;99.90
13794;DHT22;31160;49.500;7.772;2023-06-26T04:17:50;16.10;99.90
13794;DHT22;31160;49.500;7.772;2023-06-26T04:20:16;16.20;99.90
13794;DHT22;31160;49.500;7.772;2023-06-26T04:22:44;16.30;99.90
13794;DHT22;31160;49.500;7.772;2023-06-26T04:25:10;16.30;99.90
13794;DHT22;31160;49.500;7.772;2023-06-26T04:27:40;16.40;99.90
13794;DHT22;31160;49.500;7.772;2023-06-26T04:30:08;16.40;99.90
13794;DHT22;31160;49.500;7.772;2023-06-26T04:32:35;16.50;99.90
13794;DHT22;31160;49.500;7.772;2023-06-26T04:35:02;16.60;99.90
13794;DHT22;31160;49.500;7.772;2023-06-26T04:37:29;16.60;99.90
13794;DHT22;31160;49.500;7.772;2023-06-26T04:39:56;16.70;99.90
13794;DHT22;31160;49.500;7.772;2023-06-26T04:42:23;16.70;99.90
13794;DHT22;31160;49.500;7.772;2023-06-26T04:44:50;16.80;99.90
13794;DHT22;31160;49.500;7.772;2023-06-26T04:47:16;16.90;99.90
13794;DHT22;31160;49.500;7.772;2023-06-26T04:49:43;16.90;99.90
13794;DHT22;31160;49.500;7.772;2023-06-26T04:52:12;17.00;99.90
13794;DHT22;31160;49.500;7.772;2023-06-26T04:54:42;17.20;99.90
13794;DHT22;31160;49.500;7.772;2023-06-26T04:57:09;17.20;99.90
13794;DHT22;31160;49.500;7.772;2023-06-26T04:59:36;17.40;99.90
13794;DHT22;31160;49.500;7.772;2023-06-26T05:02:03;17.50;99.90
13794;DHT22;31160;49.500;7.772;2023-06-26T05:04:31;17.60;99.90
13794;DHT22;31160;49.500;7.772;2023-06-26T05:06:58;17.90;99.90
13794;DHT22;31160;49.500;7.772;2023-06-26T05:09:25;19.60;99.90
13794;DHT22;31160;49.500;7.772;2023-06-26T05:11:51;22.40;97.00
13794;DHT22;31160;49.500;7.772;2023-06-26T05:14:18;24.70;93.00
13794;DHT22;31160;49.500;7.772;2023-06-26T05:16:45;26.60;88.80
13794;DHT22;31160;49.500;7.772;2023-06-26T05:19:12;27.70;85.30
13794;DHT22;31160;49.500;7.772;2023-06-26T05:21:39;28.60;81.70
13794;DHT22;31160;49.500;7.772;2023-06-26T05:24:06;29.70;78.20
13794;DHT22;31160;49.500;7.772;2023-06-26T05:26:34;30.10;76.30
13794;DHT22;31160;49.500;7.772;2023-06-26T05:29:01;30.60;74.90
13794;DHT22;31160;49.500;7.772;2023-06-26T05:31:29;31.10;72.40
13794;DHT22;31160;49.500;7.772;2023-06-26T05:33:57;31.20;71.20
13794;DHT22;31160;49.500;7.772;2023-06-26T05:36:26;31.30;71.00
13794;DHT22;31160;49.500;7.772;2023-06-26T05:38:55;31.50;69.90
13794;DHT22;31160;49.500;7.772;2023-06-26T05:41:23;31.40;69.80
13794;DHT22;31160;49.500;7.772;2023-06-26T05:43:50;31.50;68.60
13794;DHT22;31160;49.500;7.772;2023-06-26T05:46:16;31.40;68.60
13794;DHT22;31160;49.500;7.772;2023-06-26T05:48:43;31.30;68.70
13794;DHT22;31160;49.500;7.772;2023-06-26T05:51:10;31.50;68.50
13794;DHT22;31160;49.500;7.772;2023-06-26T05:53:37;31.20;68.80
13794;DHT22;31160;49.500;7.772;2023-06-26T05:56:04;30.80;69.40
13794;DHT22;31160;49.500;7.772;2023-06-26T05:58:32;31.00;69.30
13794;DHT22;31160;49.500;7.772;2023-06-26T06:00:59;30.60;69.70
13794;DHT22;31160;49.500;7.772;2023-06-26T06:03:26;30.80;69.50
13794;DHT22;31160;49.500;7.772;2023-06-26T06:05:53;31.10;68.60
13794;DHT22;31160;49.500;7.772;2023-06-26T06:08:20;30.40;69.70
13794;DHT22;31160;49.500;7.772;2023-06-26T06:10:46;29.80;71.00
13794;DHT22;31160;49.500;7.772;2023-06-26T06:13:13;30.10;70.40
13794;DHT22;31160;49.500;7.772;2023-06-26T06:15:40;31.30;69.70
13794;DHT22;31160;49.500;7.772;2023-06-26T06:18:07;31.50;68.80
13794;DHT22;31160;49.500;7.772;2023-06-26T06:20:34;32.50;68.10
13794;DHT22;31160;49.500;7.772;2023-06-26T06:23:02;31.80;68.20
13794;DHT22;31160;49.500;7.772;2023-06-26T06:25:29;30.60;69.90
13794;DHT22;31160;49.500;7.772;2023-06-26T06:27:55;29.30;71.30
13794;DHT22;31160;49.500;7.772;2023-06-26T06:30:22;27.20;75.90
13794;DHT22;31160;49.500;7.772;2023-06-26T06:33:09;26.10;78.00
13794;DHT22;31160;49.500;7.772;2023-06-26T06:35:36;25.30;80.50
13794;DHT22;31160;49.500;7.772;2023-06-26T06:38:02;25.40;82.70
13794;DHT22;31160;49.500;7.772;2023-06-26T06:40:29;25.30;81.30
13794;DHT22;31160;49.500;7.772;2023-06-26T06:42:56;25.00;81.90
13794;DHT22;31160;49.500;7.772;2023-06-26T06:45:23;25.30;82.40
13794;DHT22;31160;49.500;7.772;2023-06-26T06:47:50;25.70;83.40
13794;DHT22;31160;49.500;7.772;2023-06-26T06:50:18;26.10;81.80
13794;DHT22;31160;49.500;7.772;2023-06-26T06:52:45;26.30;80.10
13794;DHT22;31160;49.500;7.772;2023-06-26T06:55:11;26.50;79.50
13794;DHT22;31160;49.500;7.772;2023-06-26T06:57:39;26.50;82.00
13794;DHT22;31160;49.500;7.772;2023-06-26T07:00:11;26.40;83.00
13794;DHT22;31160;49.500;7.772;2023-06-26T07:02:39;26.50;82.00
13794;DHT22;31160;49.500;7.772;2023-06-26T07:05:07;26.60;79.60
13794;DHT22;31160;49.500;7.772;2023-06-26T07:07:35;26.70;79.70
13794;DHT22;31160;49.500;7.772;2023-06-26T07:10:08;26.90;79.50
13794;DHT22;31160;49.500;7.772;2023-06-26T07:12:36;27.20;79.00
13794;DHT22;31160;49.500;7.772;2023-06-26T07:15:04;27.30;78.90
13794;DHT22;31160;49.500;7.772;2023-06-26T07:17:32;27.20;78.50
13794;DHT22;31160;49.500;7.772;2023-06-26T07:20:00;27.10;78.80
13794;DHT22;31160;49.500;7.772;2023-06-26T07:22:27;27.00;78.80
13794;DHT22;31160;49.500;7.772;2023-06-26T07:24:54;27.30;78.80
13794;DHT22;31160;49.500;7.772;2023-06-26T07:27:21;27.50;78.00
13794;DHT22;31160;49.500;7.772;2023-06-26T07:29:47;27.40;78.30
13794;DHT22;31160;49.500;7.772;2023-06-26T07:32:14;27.70;78.20
13794;DHT22;31160;49.500;7.772;2023-06-26T07:34:41;27.90;77.60
13794;DHT22;31160;49.500;7.772;2023-06-26T07:37:08;28.10;77.70
13794;DHT22;31160;49.500;7.772;2023-06-26T07:39:35;28.00;77.20
13794;DHT22;31160;49.500;7.772;2023-06-26T07:42:02;27.80;77.40
13794;DHT22;31160;49.500;7.772;2023-06-26T07:44:28;27.90;77.90
13794;DHT22;31160;49.500;7.772;2023-06-26T07:46:55;27.80;77.80
13794;DHT22;31160;49.500;7.772;2023-06-26T07:49:22;27.80;77.80
13794;DHT22;31160;49.500;7.772;2023-06-26T07:51:49;27.90;78.10
13794;DHT22;31160;49.500;7.772;2023-06-26T07:54:16;27.60;77.90
13794;DHT22;31160;49.500;7.772;2023-06-26T07:57:03;27.60;78.50
13794;DHT22;31160;49.500;7.772;2023-06-26T07:59:31;27.50;78.40
13794;DHT22;31160;49.500;7.772;2023-06-26T08:01:58;27.60;78.30
13794;DHT22;31160;49.500;7.772;2023-06-26T08:04:27;27.80;78.00
13794;DHT22;31160;49.500;7.772;2023-06-26T08:06:56;27.80;78.00
13794;DHT22;31160;49.500;7.772;2023-06-26T08:09:28;27.80;78.90
13794;DHT22;31160;49.500;7.772;2023-06-26T08:11:55;27.70;78.50
13794;DHT22;31160;49.500;7.772;2023-06-26T08:14:23;27.70;78.70
13794;DHT22;31160;49.500;7.772;2023-06-26T08:16:50;27.70;78.90
13794;DHT22;31160;49.500;7.772;2023-06-26T08:19:17;27.40;79.50
13794;DHT22;31160;49.500;7.772;2023-06-26T08:21:45;27.60;79.40
13794;DHT22;31160;49.500;7.772;2023-06-26T08:24:12;27.50;80.20
13794;DHT22;31160;49.500;7.772;2023-06-26T08:26:40;27.90;79.20
13794;DHT22;31160;49.500;7.772;2023-06-26T08:29:06;27.90;79.00
13794;DHT22;31160;49.500;7.772;2023-06-26T08:31:39;28.10;79.40
13794;DHT22;31160;49.500;7.772;2023-06-26T08:34:07;28.50;78.60
13794;DHT22;31160;49.500;7.772;2023-06-26T08:36:34;28.60;78.60
13794;DHT22;31160;49.500;7.772;2023-06-26T08:39:01;28.60;78.50
13794;DHT22;31160;49.500;7.772;2023-06-26T08:41:29;28.80;78.30
13794;DHT22;31160;49.500;7.772;2023-06-26T08:43:56;29.10;77.90
13794;DHT22;31160;49.500;7.772;2023-06-26T08:46:23;29.00;77.60
13794;DHT22;31160;49.500;7.772;2023-06-26T08:48:55;29.10;77.60
13794;DHT22;31160;49.500;7.772;2023-06-26T08:51:24;29.10;77.60
13794;DHT22;31160;49.500;7.772;2023-06-26T08:53:59;29.00;77.90
13794;DHT22;31160;49.500;7.772;2023-06-26T08:56:46;28.80;78.00
13794;DHT22;31160;49.500;7.772;2023-06-26T08:59:16;28.60;78.40
13794;DHT22;31160;49.500;7.772;2023-06-26T09:01:44;28.70;78.30
13794;DHT22;31160;49.500;7.772;2023-06-26T09:04:11;28.60;77.80
13794;DHT22;31160;49.500;7.772;2023-06-26T09:06:38;28.50;78.20
13794;DHT22;31160;49.500;7.772;2023-06-26T09:09:06;28.60;78.30
13794;DHT22;31160;49.500;7.772;2023-06-26T09:11:34;28.50;77.50
13794;DHT22;31160;49.500;7.772;2023-06-26T09:14:01;28.80;77.80
13794;DHT22;31160;49.500;7.772;2023-06-26T09:16:31;29.10;77.60
13794;DHT22;31160;49.500;7.772;2023-06-26T09:18:58;29.30;77.40
13794;DHT22;31160;49.500;7.772;2023-06-26T09:21:25;29.30;76.40
13794;DHT22;31160;49.500;7.772;2023-06-26T09:23:53;29.70;76.00
13794;DHT22;31160;49.500;7.772;2023-06-26T09:26:21;29.50;76.40
13794;DHT22;31160;49.500;7.772;2023-06-26T09:28:49;29.40;76.20
13794;DHT22;31160;49.500;7.772;2023-06-26T09:31:17;29.10;76.70
13794;DHT22;31160;49.500;7.772;2023-06-26T09:34:01;28.90;76.90
13794;DHT22;31160;49.500;7.772;2023-06-26T09:36:29;28.80;77.30
13794;DHT22;31160;49.500;7.772;2023-06-26T09:39:05;28.90;76.70
13794;DHT22;31160;49.500;7.772;2023-06-26T09:41:35;28.90;76.60
13794;DHT22;31160;49.500;7.772;2023-06-26T09:44:02;28.70;76.60
13794;DHT22;31160;49.500;7.772;2023-06-26T09:46:30;28.60;77.10
13794;DHT22;31160;49.500;7.772;2023-06-26T09:49:06;28.60;76.70
13794;DHT22;31160;49.500;7.772;2023-06-26T09:51:34;28.70;75.80
13794;DHT22;31160;49.500;7.772;2023-06-26T09:54:03;28.60;76.00
13794;DHT22;31160;49.500;7.772;2023-06-26T09:56:30;28.80;75.70
13794;DHT22;31160;49.500;7.772;2023-06-26T09:58:59;28.80;75.30
13794;DHT22;31160;49.500;7.772;2023-06-26T10:01:26;28.70;74.60
13794;DHT22;31160;49.500;7.772;2023-06-26T10:03:54;28.80;74.10
13794;DHT22;31160;49.500;7.772;2023-06-26T10:06:36;28.60;73.70
13794;DHT22;31160;49.500;7.772;2023-06-26T10:09:05;28.50;73.80
13794;DHT22;31160;49.500;7.772;2023-06-26T10:11:49;28.60;73.10
13794;DHT22;31160;49.500;7.772;2023-06-26T10:14:19;28.70;73.20
13794;DHT22;31160;49.500;7.772;2023-06-26T10:16:48;28.40;73.00
13794;DHT22;31160;49.500;7.772;2023-06-26T10:19:18;28.20;74.80
13794;DHT22;31160;49.500;7.772;2023-06-26T10:21:52;28.30;75.00
13794;DHT22;31160;49.500;7.772;2023-06-26T10:24:21;28.20;75.40
13794;DHT22;31160;49.500;7.772;2023-06-26T10:26:52;28.10;74.50
13794;DHT22;31160;49.500;7.772;2023-06-26T10:29:22;28.30;73.60
13794;DHT22;31160;49.500;7.772;2023-06-26T10:31:52;28.50;73.00
13794;DHT22;31160;49.500;7.772;2023-06-26T10:34:21;28.50;71.60
13794;DHT22;31160;49.500;7.772;2023-06-26T10:37:02;28.50;70.70
13794;DHT22;31160;49.500;7.772;2023-06-26T10:42:13;28.50;71.50
13794;DHT22;31160;49.500;7.772;2023-06-26T10:44:42;28.50;70.50
13794;DHT22;31160;49.500;7.772;2023-06-26T10:47:10;28.60;70.70
13794;DHT22;31160;49.500;7.772;2023-06-26T10:49:38;28.50;69.80
13794;DHT22;31160;49.500;7.772;2023-06-26T10:52:08;28.50;69.70
13794;DHT22;31160;49.500;7.772;2023-06-26T10:54:38;28.70;69.40
13794;DHT22;31160;49.500;7.772;2023-06-26T10:57:07;28.70;69.50
13794;DHT22;31160;49.500;7.772;2023-06-26T10:59:34;28.60;69.30
13794;DHT22;31160;49.500;7.772;2023-06-26T11:02:05;28.30;68.30
13794;DHT22;31160;49.500;7.772;2023-06-26T11:10:16;28.40;67.90
13794;DHT22;31160;49.500;7.772;2023-06-26T11:12:44;28.30;68.90
13794;DHT22;31160;49.500;7.772;2023-06-26T11:15:15;28.10;68.40
13794;DHT22;31160;49.500;7.772;2023-06-26T11:17:43;28.20;68.80
13794;DHT22;31160;49.500;7.772;2023-06-26T11:20:12;28.50;67.90
13794;DHT22;31160;49.500;7.772;2023-06-26T11:22:41;28.80;67.40
13794;DHT22;31160;49.500;7.772;2023-06-26T11:25:09;28.90;66.50
13794;DHT22;31160;49.500;7.772;2023-06-26T11:27:43;29.10;66.10
13794;DHT22;31160;49.500;7.772;2023-06-26T11:30:24;28.90;65.60
13794;DHT22;31160;49.500;7.772;2023-06-26T11:32:51;28.80;66.20
13794;DHT22;31160;49.500;7.772;2023-06-26T11:35:24;28.70;63.20
13794;DHT22;31160;49.500;7.772;2023-06-26T11:37:58;28.80;67.00
13794;DHT22;31160;49.500;7.772;2023-06-26T11:40:33;28.90;64.50
13794;DHT22;31160;49.500;7.772;2023-06-26T11:43:03;29.30;65.20
13794;DHT22;31160;49.500;7.772;2023-06-26T11:45:33;29.40;64.30
13794;DHT22;31160;49.500;7.772;2023-06-26T11:48:00;29.20;63.70
13794;DHT22;31160;49.500;7.772;2023-06-26T11:50:28;29.10;64.10
13794;DHT22;31160;49.500;7.772;2023-06-26T11:52:58;28.90;65.10
13794;DHT22;31160;49.500;7.772;2023-06-26T11:55:26;29.00;65.10
13794;DHT22;31160;49.500;7.772;2023-06-26T11:57:54;29.00;64.90
13794;DHT22;31160;49.500;7.772;2023-06-26T12:00:21;28.90;67.20
13794;DHT22;31160;49.500;7.772;2023-06-26T12:02:48;29.00;65.90
13794;DHT22;31160;49.500;7.772;2023-06-26T12:05:17;29.10;65.60
13794;DHT22;31160;49.500;7.772;2023-06-26T12:07:48;29.00;65.30
13794;DHT22;31160;49.500;7.772;2023-06-26T12:10:17;29.10;65.50
13794;DHT22;31160;49.500;7.772;2023-06-26T12:12:45;29.10;65.50
13794;DHT22;31160;49.500;7.772;2023-06-26T12:15:15;29.30;65.00
13794;DHT22;31160;49.500;7.772;2023-06-26T12:17:42;29.20;65.30
13794;DHT22;31160;49.500;7.772;2023-06-26T12:20:23;29.00;67.10
13794;DHT22;31160;49.500;7.772;2023-06-26T12:22:52;29.10;63.30
13794;DHT22;31160;49.500;7.772;2023-06-26T12:25:25;29.00;61.20
13794;DHT22;31160;49.500;7.772;2023-06-26T12:27:51;28.90;58.90
13794;DHT22;31160;49.500;7.772;2023-06-26T12:30:18;28.70;60.40
13794;DHT22;31160;49.500;7.772;2023-06-26T12:32:46;28.60;60.60
13794;DHT22;31160;49.500;7.772;2023-06-26T12:35:16;28.70;57.40
13794;DHT22;31160;49.500;7.772;2023-06-26T12:37:43;28.70;56.20
13794;DHT22;31160;49.500;7.772;2023-06-26T12:40:19;28.70;55.20
13794;DHT22;31160;49.500;7.772;2023-06-26T12:42:49;28.90;55.70
13794;DHT22;31160;49.500;7.772;2023-06-26T12:45:16;29.10;56.40
13794;DHT22;31160;49.500;7.772;2023-06-26T12:48:10;29.10;56.00
13794;DHT22;31160;49.500;7.772;2023-06-26T12:50:43;29.00;53.10
13794;DHT22;31160;49.500;7.772;2023-06-26T12:53:10;29.10;54.90
13794;DHT22;31160;49.500;7.772;2023-06-26T12:55:40;29.30;54.60
13794;DHT22;31160;49.500;7.772;2023-06-26T12:58:06;29.30;55.50
13794;DHT22;31160;49.500;7.772;2023-06-26T13:00:35;29.10;55.20
13794;DHT22;31160;49.500;7.772;2023-06-26T13:03:02;29.00;54.70
13794;DHT22;31160;49.500;7.772;2023-06-26T13:05:28;29.00;53.50
13794;DHT22;31160;49.500;7.772;2023-06-26T13:07:55;28.90;54.80
13794;DHT22;31160;49.500;7.772;2023-06-26T13:10:23;28.90;53.20
13794;DHT22;31160;49.500;7.772;2023-06-26T13:12:49;29.10;53.20
13794;DHT22;31160;49.500;7.772;2023-06-26T13:15:16;29.30;53.40
13794;DHT22;31160;49.500;7.772;2023-06-26T13:17:43;29.40;52.50
13794;DHT22;31160;49.500;7.772;2023-06-26T13:20:10;29.60;53.20
13794;DHT22;31160;49.500;7.772;2023-06-26T13:22:37;29.20;53.30
13794;DHT22;31160;49.500;7.772;2023-06-26T13:25:04;29.10;52.50
13794;DHT22;31160;49.500;7.772;2023-06-26T13:27:31;29.20;51.40
13794;DHT22;31160;49.500;7.772;2023-06-26T13:29:58;29.30;51.00
13794;DHT22;31160;49.500;7.772;2023-06-26T13:32:24;29.60;51.50
13794;DHT22;31160;49.500;7.772;2023-06-26T13:34:51;29.60;51.10
13794;DHT22;31160;49.500;7.772;2023-06-26T13:37:18;29.50;52.20
13794;DHT22;31160;49.500;7.772;2023-06-26T13:39:45;29.80;51.00
13794;DHT22;31160;49.500;7.772;2023-06-26T13:42:17;29.80;50.80
13794;DHT22;31160;49.500;7.772;2023-06-26T13:44:44;30.00;49.80
13794;DHT22;31160;49.500;7.772;2023-06-26T13:47:27;29.80;49.80
13794;DHT22;31160;49.500;7.772;2023-06-26T13:49:53;29.60;50.50
13794;DHT22;31160;49.500;7.772;2023-06-26T13:52:20;29.50;50.30
13794;DHT22;31160;49.500;7.772;2023-06-26T13:54:47;29.60;51.50
13794;DHT22;31160;49.500;7.772;2023-06-26T13:57:14;29.40;52.00
13794;DHT22;31160;49.500;7.772;2023-06-26T13:59:41;29.30;53.00
13794;DHT22;31160;49.500;7.772;2023-06-26T14:02:08;29.50;53.40
13794;DHT22;31160;49.500;7.772;2023-06-26T14:04:35;29.40;54.40
13794;DHT22;31160;49.500;7.772;2023-06-26T14:07:01;29.50;54.50
13794;DHT22;31160;49.500;7.772;2023-06-26T14:09:28;29.30;55.80
13794;DHT22;31160;49.500;7.772;2023-06-26T14:11:55;29.40;55.10
13794;DHT22;31160;49.500;7.772;2023-06-26T14:14:22;29.20;56.80
13794;DHT22;31160;49.500;7.772;2023-06-26T14:16:49;28.90;56.40
13794;DHT22;31160;49.500;7.772;2023-06-26T14:19:16;29.00;56.30
13794;DHT22;31160;49.500;7.772;2023-06-26T14:21:44;28.90;56.60
13794;DHT22;31160;49.500;7.772;2023-06-26T14:24:10;28.80;56.80
13794;DHT22;31160;49.500;7.772;2023-06-26T14:26:37;28.60;57.20
13794;DHT22;31160;49.500;7.772;2023-06-26T14:29:05;28.80;57.80
13794;DHT22;31160;49.500;7.772;2023-06-26T14:31:32;28.60;57.40
13794;DHT22;31160;49.500;7.772;2023-06-26T14:34:00;28.50;57.60
13794;DHT22;31160;49.500;7.772;2023-06-26T14:36:26;28.70;57.60
13794;DHT22;31160;49.500;7.772;2023-06-26T14:38:53;29.00;56.80
13794;DHT22;31160;49.500;7.772;2023-06-26T14:41:21;28.80;56.90
13794;DHT22;31160;49.500;7.772;2023-06-26T14:43:48;28.70;56.90
13794;DHT22;31160;49.500;7.772;2023-06-26T14:46:15;28.70;56.50
13794;DHT22;31160;49.500;7.772;2023-06-26T14:48:43;28.70;56.70
13794;DHT22;31160;49.500;7.772;2023-06-26T14:51:09;28.80;56.90
13794;DHT22;31160;49.500;7.772;2023-06-26T14:53:36;28.90;57.10
13794;DHT22;31160;49.500;7.772;2023-06-26T14:56:03;28.80;57.10
13794;DHT22;31160;49.500;7.772;2023-06-26T14:58:32;28.70;57.10
13794;DHT22;31160;49.500;7.772;2023-06-26T15:00:58;28.70;56.90
13794;DHT22;31160;49.500;7.772;2023-06-26T15:03:25;28.90;56.70
13794;DHT22;31160;49.500;7.772;2023-06-26T15:05:52;28.50;56.70
13794;DHT22;31160;49.500;7.772;2023-06-26T15:08:19;28.40;56.60
13794;DHT22;31160;49.500;7.772;2023-06-26T15:10:45;28.40;56.10
13794;DHT22;31160;49.500;7.772;2023-06-26T15:13:12;28.50;56.00
13794;DHT22;31160;49.500;7.772;2023-06-26T15:15:39;28.30;55.40
13794;DHT22;31160;49.500;7.772;2023-06-26T15:18:05;28.30;55.00
13794;DHT22;31160;49.500;7.772;2023-06-26T15:20:33;28.50;52.70
13794;DHT22;31160;49.500;7.772;2023-06-26T15:22:59;28.20;52.20
13794;DHT22;31160;49.500;7.772;2023-06-26T15:25:26;28.00;53.30
13794;DHT22;31160;49.500;7.772;2023-06-26T15:27:54;28.10;52.90
13794;DHT22;31160;49.500;7.772;2023-06-26T15:30:21;28.00;53.00
13794;DHT22;31160;49.500;7.772;2023-06-26T15:32:48;28.00;52.30
13794;DHT22;31160;49.500;7.772;2023-06-26T15:35:15;27.80;52.40
13794;DHT22;31160;49.500;7.772;2023-06-26T15:37:41;27.80;51.60
13794;DHT22;31160;49.500;7.772;2023-06-26T15:40:09;27.70;52.30
13794;DHT22;31160;49.500;7.772;2023-06-26T15:42:48;27.50;52.70
13794;DHT22;31160;49.500;7.772;2023-06-26T15:45:15;27.40;54.60
13794;DHT22;31160;49.500;7.772;2023-06-26T15:47:44;27.50;53.10
13794;DHT22;31160;49.500;7.772;2023-06-26T15:50:11;27.40;53.40
13794;DHT22;31160;49.500;7.772;2023-06-26T15:52:38;27.50;53.40